createdAt,value
2023-04-27T00:02:13.558Z,100609.22
2023-04-27T00:05:16.505Z,100605.84
2023-04-27T00:08:18.845Z,100603.16
2023-04-27T00:11:21.305Z,100606.38
2023-04-27T00:14:23.615Z,100607.16
2023-04-27T00:17:25.964Z,100618.72
2023-04-27T00:20:28.594Z,100616.69
2023-04-27T00:23:30.967Z,100626.47
2023-04-27T00:26:33.244Z,100621.16
2023-04-27T00:29:35.664Z,100610.53
2023-04-27T00:32:38.101Z,100613.78
2023-04-27T00:35:40.427Z,100614.22
2023-04-27T00:38:42.695Z,100608.19
2023-04-27T00:41:44.916Z,100616.97
2023-04-27T00:44:47.574Z,100619.69
2023-04-27T00:47:50.087Z,100613.72
2023-04-27T00:50:53.552Z,100617.19
2023-04-27T00:54:00.026Z,100618.34
2023-04-27T00:57:04.192Z,100611.47
2023-04-27T01:00:07.347Z,100614.44
2023-04-27T01:03:09.932Z,100609.09
2023-04-27T01:06:12.341Z,100618.38
2023-04-27T01:09:16.535Z,100615.31
2023-04-27T01:12:18.855Z,100620.03
2023-04-27T01:15:21.497Z,100613.59
2023-04-27T01:18:23.908Z,100618.69
2023-04-27T01:21:26.630Z,100626.03
2023-04-27T01:24:28.887Z,100622.75
2023-04-27T01:27:31.185Z,100625.19
2023-04-27T01:30:33.444Z,100623.84
2023-04-27T01:33:35.728Z,100622.59
2023-04-27T01:36:37.972Z,100624.41
2023-04-27T01:39:40.250Z,100623.28
2023-04-27T01:42:43.725Z,100626.47
2023-04-27T01:45:45.995Z,100625.34
2023-04-27T01:48:48.243Z,100628.19
2023-04-27T01:51:50.616Z,100633.63
2023-04-27T01:54:52.857Z,100623.50
2023-04-27T01:57:56.951Z,100634.84
2023-04-27T02:00:59.236Z,100635.41
2023-04-27T02:04:01.798Z,100636.28
2023-04-27T02:07:04.912Z,100628.00
2023-04-27T02:10:07.725Z,100643.41
2023-04-27T02:13:10.126Z,100642.56
2023-04-27T02:16:12.491Z,100650.81
2023-04-27T02:19:16.203Z,100648.19
2023-04-27T02:22:19.422Z,100653.44
2023-04-27T02:25:22.729Z,100654.19
2023-04-27T02:28:25.083Z,100659.91
2023-04-27T02:31:29.122Z,100653.56
2023-04-27T02:34:31.514Z,100656.34
2023-04-27T02:37:35.078Z,100662.09
2023-04-27T02:40:37.403Z,100667.44
2023-04-27T02:43:41.971Z,100660.72
2023-04-27T02:46:44.336Z,100665.38
2023-04-27T02:49:46.591Z,100678.03
2023-04-27T02:52:48.861Z,100675.97
2023-04-27T02:55:51.496Z,100675.72
2023-04-27T02:58:53.860Z,100675.25
2023-04-27T03:01:56.223Z,100679.31
2023-04-27T03:04:59.328Z,100683.91
2023-04-27T03:08:02.016Z,100677.53
2023-04-27T03:11:04.303Z,100682.47
2023-04-27T03:14:06.897Z,100689.00
2023-04-27T03:17:10.532Z,100684.88
2023-04-27T03:20:13.105Z,100689.69
2023-04-27T03:23:15.467Z,100689.03
2023-04-27T03:26:17.841Z,100689.03
2023-04-27T03:29:20.184Z,100692.75
2023-04-27T03:32:22.550Z,100694.03
2023-04-27T03:35:24.819Z,100693.84
2023-04-27T03:38:27.641Z,100699.72
2023-04-27T03:41:29.997Z,100707.72
2023-04-27T03:44:33.663Z,100711.41
2023-04-27T03:47:35.967Z,100711.75
2023-04-27T03:50:38.230Z,100703.59
2023-04-27T03:53:40.790Z,100718.31
2023-04-27T03:56:44.612Z,100723.53
2023-04-27T03:59:47.035Z,100724.09
2023-04-27T04:02:49.762Z,100721.88
2023-04-27T04:05:52.261Z,100726.38
2023-04-27T04:08:55.542Z,100727.00
2023-04-27T04:11:58.054Z,100729.75
2023-04-27T04:15:00.439Z,100744.13
2023-04-27T04:18:03.263Z,100744.88
2023-04-27T04:21:05.964Z,100748.72
2023-04-27T04:24:08.368Z,100741.34
2023-04-27T04:27:10.736Z,100746.53
2023-04-27T04:30:13.550Z,100751.69
2023-04-27T04:33:17.206Z,100750.69
2023-04-27T04:36:19.569Z,100748.66
2023-04-27T04:39:21.783Z,100756.22
2023-04-27T04:42:25.040Z,100753.69
2023-04-27T04:45:27.426Z,100753.25
2023-04-27T04:48:29.821Z,100765.44
2023-04-27T04:51:32.148Z,100763.38
2023-04-27T04:54:34.933Z,100766.28
2023-04-27T04:57:37.416Z,100762.59
2023-04-27T05:00:41.352Z,100762.38
2023-04-27T05:03:44.137Z,100763.81
2023-04-27T05:06:47.112Z,100771.50
2023-04-27T05:09:49.431Z,100770.00
2023-04-27T05:12:51.857Z,100778.25
2023-04-27T05:15:54.607Z,100777.31
2023-04-27T05:18:57.103Z,100783.91
2023-04-27T05:21:59.471Z,100796.47
2023-04-27T05:25:01.905Z,100784.53
2023-04-27T05:28:04.385Z,100788.09
2023-04-27T05:31:06.761Z,100792.75
2023-04-27T05:34:10.061Z,100792.75
2023-04-27T05:37:13.285Z,100795.84
2023-04-27T05:40:15.953Z,100783.00
2023-04-27T05:43:18.340Z,100795.59
2023-04-27T05:46:21.521Z,100797.47
2023-04-27T05:49:23.916Z,100804.56
2023-04-27T05:52:30.935Z,100801.19
2023-04-27T05:55:33.612Z,100810.06
2023-04-27T05:58:36.200Z,100807.47
2023-04-27T06:01:39.033Z,100809.22
2023-04-27T06:04:41.432Z,100813.44
2023-04-27T06:07:43.949Z,100811.66
2023-04-27T06:10:46.421Z,100816.63
2023-04-27T06:13:48.727Z,100816.22
2023-04-27T06:16:51.189Z,100821.75
2023-04-27T06:19:53.503Z,100816.88
2023-04-27T06:23:00.250Z,100814.84
2023-04-27T06:26:04.338Z,100821.44
2023-04-27T06:29:08.227Z,100818.22
2023-04-27T06:32:11.392Z,100827.94
2023-04-27T06:35:13.724Z,100827.84
2023-04-27T06:38:16.733Z,100827.72
2023-04-27T06:41:18.971Z,100827.47
2023-04-27T06:44:21.332Z,100830.00
2023-04-27T06:47:23.702Z,100830.22
2023-04-27T06:50:26.332Z,100831.88
2023-04-27T06:53:28.757Z,100831.88
2023-04-27T06:56:31.071Z,100830.63
2023-04-27T06:59:33.429Z,100834.63
2023-04-27T07:02:36.151Z,100829.88
2023-04-27T07:05:39.040Z,100837.59
2023-04-27T07:08:41.560Z,100836.00
2023-04-27T07:11:43.796Z,100843.41
2023-04-27T07:14:46.424Z,100838.00
2023-04-27T07:17:48.932Z,100833.94
2023-04-27T07:20:51.433Z,100835.72
2023-04-27T07:23:54.420Z,100844.72
2023-04-27T07:26:58.133Z,100848.88
2023-04-27T07:30:00.609Z,100854.34
2023-04-27T07:33:03.638Z,100859.69
2023-04-27T07:36:06.827Z,100856.78
2023-04-27T07:39:09.300Z,100852.19
2023-04-27T07:42:12.722Z,100860.19
2023-04-27T07:45:17.481Z,100844.72
2023-04-27T07:48:20.022Z,100849.78
2023-04-27T07:51:23.008Z,100844.91
2023-04-27T07:54:29.676Z,100842.63
2023-04-27T07:57:33.360Z,100843.66
2023-04-27T08:00:38.289Z,100847.53
2023-04-27T08:03:41.148Z,100839.41
2023-04-27T08:06:44.747Z,100837.53
2023-04-27T08:09:47.326Z,100841.41
2023-04-27T08:12:49.695Z,100836.03
2023-04-27T08:15:54.374Z,100836.91
2023-04-27T08:18:58.032Z,100839.00
2023-04-27T08:22:01.251Z,100844.34
2023-04-27T08:25:04.780Z,100840.53
2023-04-27T08:28:07.859Z,100849.69
2023-04-27T08:31:10.203Z,100841.38
2023-04-27T08:34:12.682Z,100840.72
2023-04-27T08:37:15.066Z,100838.25
2023-04-27T08:40:19.887Z,100830.25
2023-04-27T08:43:22.262Z,100835.63
2023-04-27T08:46:27.304Z,100837.09
2023-04-27T08:49:29.615Z,100836.56
2023-04-27T08:52:32.394Z,100838.28
2023-04-27T08:55:34.714Z,100840.31
2023-04-27T08:58:37.532Z,100829.13
2023-04-27T09:01:48.654Z,100827.94
2023-04-27T09:04:51.729Z,100832.56
2023-04-27T09:08:01.584Z,100823.72
2023-04-27T09:11:04.170Z,100824.84
2023-04-27T09:14:37.014Z,100830.31
2023-04-27T09:17:39.642Z,100823.81
2023-04-27T09:20:47.366Z,100823.63
2023-04-27T09:23:49.927Z,100816.94
2023-04-27T09:26:52.284Z,100818.47
2023-04-27T09:29:54.578Z,100817.03
2023-04-27T09:32:59.276Z,100816.75
2023-04-27T09:36:06.566Z,100810.84
2023-04-27T09:39:09.972Z,100815.00
2023-04-27T09:42:12.990Z,100807.81
2023-04-27T09:45:16.071Z,100806.97
2023-04-27T09:48:18.891Z,100809.06
2023-04-27T09:51:21.247Z,100804.50
2023-04-27T09:54:27.567Z,100800.13
2023-04-27T09:57:53.396Z,100797.88
2023-04-27T10:01:07.331Z,100805.75
2023-04-27T10:04:28.190Z,100796.63
2023-04-27T10:07:32.555Z,100791.16
2023-04-27T10:10:50.788Z,100784.69
2023-04-27T10:13:55.397Z,100783.69
2023-04-27T10:16:59.218Z,100788.63
2023-04-27T10:20:04.483Z,100788.00
2023-04-27T10:23:07.120Z,100780.31
2023-04-27T10:26:09.496Z,100780.94
2023-04-27T10:29:12.637Z,100778.41
2023-04-27T10:32:26.381Z,100781.66
2023-04-27T10:35:34.701Z,100786.47
2023-04-27T10:38:40.731Z,100772.31
2023-04-27T10:41:51.795Z,100764.22
2023-04-27T10:44:57.647Z,100774.22
2023-04-27T10:48:01.716Z,100766.41
2023-04-27T10:51:04.943Z,100768.88
2023-04-27T10:54:08.482Z,100767.13
2023-04-27T10:57:11.873Z,100779.31
2023-04-27T11:00:17.680Z,100774.47
2023-04-27T11:03:24.099Z,100764.97
2023-04-27T11:06:28.525Z,100770.97
2023-04-27T11:09:31.783Z,100765.13
2023-04-27T11:12:34.059Z,100762.09
2023-04-27T11:15:50.110Z,100762.94
2023-04-27T11:18:52.409Z,100751.81
2023-04-27T11:22:04.281Z,100755.22
2023-04-27T11:25:06.862Z,100746.16
2023-04-27T11:28:18.569Z,100752.00
2023-04-27T11:31:21.116Z,100752.16
2023-04-27T11:34:25.015Z,100761.53
2023-04-27T11:37:27.807Z,100756.50
2023-04-27T11:40:31.069Z,100744.91
2023-04-27T11:43:35.017Z,100750.50
2023-04-27T11:46:38.406Z,100749.00
2023-04-27T11:49:40.742Z,100748.91
2023-04-27T11:52:43.016Z,100753.22
2023-04-27T11:55:45.941Z,100729.03
2023-04-27T11:58:48.450Z,100761.28
2023-04-27T12:01:51.835Z,100755.28
2023-04-27T12:04:55.555Z,100749.53
2023-04-27T12:07:58.383Z,100750.91
2023-04-27T12:11:00.756Z,100759.22
2023-04-27T12:14:03.255Z,100741.56
2023-04-27T12:17:06.222Z,100748.94
2023-04-27T12:20:09.362Z,100741.03
2023-04-27T12:23:11.826Z,100735.03
2023-04-27T12:26:15.371Z,100746.34
2023-04-27T12:29:18.164Z,100736.56
2023-04-27T12:32:20.607Z,100738.34
2023-04-27T12:35:23.012Z,100736.56
2023-04-27T12:38:25.366Z,100744.88
2023-04-27T12:41:27.984Z,100735.09
2023-04-27T12:44:30.333Z,100734.31
2023-04-27T12:47:54.077Z,100740.38
2023-04-27T12:50:57.164Z,100734.25
2023-04-27T12:54:00.892Z,100735.06
2023-04-27T12:57:06.422Z,100733.75
2023-04-27T13:00:10.529Z,100734.59
2023-04-27T13:03:13.030Z,100731.66
2023-04-27T13:06:15.515Z,100731.13
2023-04-27T13:09:17.828Z,100736.16
2023-04-27T13:12:20.068Z,100737.66
2023-04-27T13:15:22.771Z,100732.56
2023-04-27T13:18:25.625Z,100734.00
2023-04-27T13:21:29.602Z,100730.13
2023-04-27T13:24:32.001Z,100733.44
2023-04-27T13:27:37.412Z,100730.63
2023-04-27T13:30:40.515Z,100737.47
2023-04-27T13:33:44.173Z,100744.72
2023-04-27T13:36:48.920Z,100733.41
2023-04-27T13:39:51.819Z,100731.91
2023-04-27T13:42:54.116Z,100731.81
2023-04-27T13:45:58.907Z,100731.63
2023-04-27T13:49:03.428Z,100734.19
2023-04-27T13:52:05.787Z,100736.44
2023-04-27T13:55:09.908Z,100731.13
2023-04-27T13:58:13.477Z,100731.06
2023-04-27T14:01:15.938Z,100716.41
2023-04-27T14:04:18.429Z,100716.41
2023-04-27T14:07:21.246Z,100729.44
2023-04-27T14:10:23.638Z,100727.50
2023-04-27T14:13:26.058Z,100731.72
2023-04-27T14:16:28.503Z,100732.31
2023-04-27T14:19:31.854Z,100723.97
2023-04-27T14:22:38.616Z,100733.41
2023-04-27T14:25:41.466Z,100742.63
2023-04-27T14:28:43.842Z,100740.94
2023-04-27T14:31:47.020Z,100735.84
2023-04-27T14:34:49.476Z,100753.25
2023-04-27T14:37:52.650Z,100740.19
2023-04-27T14:40:54.967Z,100744.56
2023-04-27T14:43:57.255Z,100745.38
2023-04-27T14:46:59.683Z,100747.47
2023-04-27T14:50:02.052Z,100749.81
2023-04-27T14:53:04.451Z,100736.25
2023-04-27T14:56:07.518Z,100739.97
2023-04-27T14:59:09.940Z,100745.09
2023-04-27T15:02:12.202Z,100739.97
2023-04-27T15:05:14.450Z,100743.25
2023-04-27T15:08:16.690Z,100749.31
2023-04-27T15:11:18.949Z,100745.78
2023-04-27T15:14:21.197Z,100743.81
2023-04-27T15:17:24.167Z,100745.28
2023-04-27T15:20:27.021Z,100742.66
2023-04-27T15:23:29.367Z,100741.06
2023-04-27T15:26:31.858Z,100737.13
2023-04-27T15:29:34.193Z,100735.75
2023-04-27T15:32:36.545Z,100743.56
2023-04-27T15:35:40.635Z,100747.41
2023-04-27T15:38:43.009Z,100740.44
2023-04-27T15:41:45.477Z,100740.63
2023-04-27T15:44:48.826Z,100742.84
2023-04-27T15:47:51.332Z,100738.34
2023-04-27T15:50:53.590Z,100738.59
2023-04-27T15:53:55.948Z,100737.94
2023-04-27T15:57:01.155Z,100744.13
2023-04-27T16:00:07.411Z,100743.91
2023-04-27T16:03:14.452Z,100751.34
2023-04-27T16:06:17.036Z,100743.78
2023-04-27T16:09:20.237Z,100740.72
2023-04-27T16:12:22.521Z,100743.09
2023-04-27T16:15:24.831Z,100743.94
2023-04-27T16:18:27.220Z,100751.13
2023-04-27T16:21:29.601Z,100745.19
2023-04-27T16:24:32.048Z,100749.19
2023-04-27T16:27:34.461Z,100756.13
2023-04-27T16:30:38.064Z,100748.75
2023-04-27T16:33:40.529Z,100750.97
2023-04-27T16:36:43.449Z,100755.78
2023-04-27T16:39:45.712Z,100760.28
2023-04-27T16:42:48.004Z,100767.28
2023-04-27T16:45:51.100Z,100764.44
2023-04-27T16:48:53.644Z,100762.44
2023-04-27T16:51:56.410Z,100759.44
2023-04-27T16:54:58.666Z,100760.53
2023-04-27T16:58:01.055Z,100767.53
2023-04-27T17:01:03.468Z,100767.19
2023-04-27T17:04:06.048Z,100773.63
2023-04-27T17:07:09.190Z,100769.72
2023-04-27T17:10:11.806Z,100771.97
2023-04-27T17:13:16.474Z,100771.00
2023-04-27T17:16:19.713Z,100774.47
2023-04-27T17:19:22.068Z,100776.19
2023-04-27T17:22:24.484Z,100777.09
2023-04-27T17:25:27.021Z,100773.81
2023-04-27T17:28:30.089Z,100779.09
2023-04-27T17:31:32.479Z,100781.22
2023-04-27T17:34:35.206Z,100783.97
2023-04-27T17:37:38.043Z,100791.94
2023-04-27T17:40:40.468Z,100792.19
2023-04-27T17:43:42.726Z,100786.72
2023-04-27T17:46:49.265Z,100792.81
2023-04-27T17:49:51.636Z,100795.81
2023-04-27T17:52:54.207Z,100794.78
2023-04-27T17:55:56.511Z,100805.50
2023-04-27T17:58:58.801Z,100806.56
2023-04-27T18:02:01.126Z,100806.84
2023-04-27T18:05:03.731Z,100803.94
2023-04-27T18:08:06.206Z,100815.03
2023-04-27T18:11:08.537Z,100822.97
2023-04-27T18:14:10.829Z,100817.13
2023-04-27T18:17:13.130Z,100822.19
2023-04-27T18:20:15.937Z,100816.69
2023-04-27T18:23:18.191Z,100830.44
2023-04-27T18:26:20.652Z,100830.19
2023-04-27T18:29:22.931Z,100836.47
2023-04-27T18:32:25.432Z,100831.72
2023-04-27T18:35:27.906Z,100836.72
2023-04-27T18:38:30.134Z,100839.56
2023-04-27T18:41:32.486Z,100837.69
2023-04-27T18:44:34.807Z,100850.59
2023-04-27T18:47:37.072Z,100852.38
2023-04-27T18:50:39.401Z,100852.84
2023-04-27T18:53:41.716Z,100847.31
2023-04-27T18:56:44.008Z,100859.41
2023-04-27T18:59:46.865Z,100857.53
2023-04-27T19:02:52.129Z,100863.22
2023-04-27T19:05:54.991Z,100854.81
2023-04-27T19:08:57.854Z,100862.41
2023-04-27T19:12:03.306Z,100856.53
2023-04-27T19:15:06.465Z,100863.63
2023-04-27T19:18:11.413Z,100873.88
2023-04-27T19:21:14.089Z,100867.84
2023-04-27T19:24:16.508Z,100876.75
2023-04-27T19:27:18.779Z,100877.25
2023-04-27T19:30:21.099Z,100882.16
2023-04-27T19:33:23.414Z,100877.59
2023-04-27T19:36:28.049Z,100886.19
2023-04-27T19:39:32.373Z,100888.13
2023-04-27T19:42:36.538Z,100885.75
2023-04-27T19:45:39.691Z,100886.19
2023-04-27T19:48:42.514Z,100888.16
2023-04-27T19:51:44.909Z,100872.84
2023-04-27T19:54:52.239Z,100874.72
2023-04-27T19:57:54.523Z,100881.50
2023-04-27T20:00:56.973Z,100882.53
2023-04-27T20:03:59.474Z,100878.13
2023-04-27T20:07:03.766Z,100875.94
2023-04-27T20:10:08.200Z,100879.41
2023-04-27T20:13:10.682Z,100875.06
2023-04-27T20:16:13.022Z,100886.84
2023-04-27T20:19:17.835Z,100893.00
2023-04-27T20:22:20.140Z,100894.47
2023-04-27T20:25:23.021Z,100890.94
2023-04-27T20:28:25.293Z,100890.00
2023-04-27T20:31:27.602Z,100894.94
2023-04-27T20:34:29.916Z,100897.22
2023-04-27T20:37:32.444Z,100893.66
2023-04-27T20:40:34.803Z,100901.94
2023-04-27T20:43:40.022Z,100903.00
2023-04-27T20:46:42.540Z,100902.72
2023-04-27T20:49:44.848Z,100905.31
2023-04-27T20:52:47.375Z,100895.22
2023-04-27T20:55:49.749Z,100901.78
2023-04-27T20:58:52.591Z,100901.56
2023-04-27T21:01:54.884Z,100894.28
2023-04-27T21:04:57.314Z,100899.84
2023-04-27T21:07:59.670Z,100909.97
2023-04-27T21:11:02.168Z,100916.84
2023-04-27T21:14:04.416Z,100916.44
2023-04-27T21:17:06.722Z,100917.78
2023-04-27T21:20:10.086Z,100924.69
2023-04-27T21:23:14.838Z,100924.91
2023-04-27T21:26:17.134Z,100925.41
2023-04-27T21:29:19.460Z,100933.91
2023-04-27T21:32:21.736Z,100927.50
2023-04-27T21:35:25.479Z,100934.41
2023-04-27T21:38:27.826Z,100928.22
2023-04-27T21:41:30.223Z,100930.19
2023-04-27T21:44:32.863Z,100928.91
2023-04-27T21:47:35.215Z,100936.88
2023-04-27T21:50:37.536Z,100928.69
2023-04-27T21:53:42.179Z,100944.84
2023-04-27T21:56:44.629Z,100940.25
2023-04-27T21:59:47.014Z,100951.25
2023-04-27T22:02:49.763Z,100953.09
2023-04-27T22:05:52.852Z,100949.47
2023-04-27T22:08:55.239Z,100948.53
2023-04-27T22:11:57.498Z,100949.16
2023-04-27T22:14:59.756Z,100946.56
2023-04-27T22:18:02.255Z,100946.25
2023-04-27T22:21:04.714Z,100953.19
2023-04-27T22:24:07.085Z,100955.13
2023-04-27T22:27:09.318Z,100962.53
2023-04-27T22:30:12.246Z,100952.63
2023-04-27T22:33:14.750Z,100955.13
2023-04-27T22:36:17.206Z,100950.00
2023-04-27T22:39:19.589Z,100959.50
2023-04-27T22:42:21.932Z,100966.41
2023-04-27T22:45:24.408Z,100952.31
2023-04-27T22:48:27.284Z,100959.91
2023-04-27T22:51:29.640Z,100961.41
2023-04-27T22:54:31.890Z,100963.47
2023-04-27T22:57:34.197Z,100974.84
2023-04-27T23:00:37.592Z,100970.38
2023-04-27T23:03:40.167Z,100974.16
2023-04-27T23:06:42.477Z,100980.06
2023-04-27T23:09:45.875Z,100983.34
2023-04-27T23:12:48.206Z,100980.16
2023-04-27T23:15:50.782Z,100975.22
2023-04-27T23:18:53.118Z,100978.06
2023-04-27T23:21:56.148Z,100974.22
2023-04-27T23:24:58.490Z,100968.63
2023-04-27T23:28:01.210Z,100975.22
2023-04-27T23:31:03.547Z,100976.72
2023-04-27T23:34:05.861Z,100975.91
2023-04-27T23:37:08.363Z,100974.41
2023-04-27T23:40:10.990Z,100974.97
2023-04-27T23:43:13.215Z,100972.81
2023-04-27T23:46:15.578Z,100971.81
2023-04-27T23:49:17.875Z,100974.41
2023-04-27T23:52:20.133Z,100977.84
2023-04-27T23:55:22.504Z,100971.81
2023-04-27T23:58:26.131Z,100976.47
